createdAt,value
2023-04-23T00:00:00.257Z,0.11
2023-04-23T00:10:01.025Z,0.11
2023-04-23T00:20:01.301Z,0.00
2023-04-23T00:30:01.832Z,0.00
2023-04-23T00:40:01.253Z,0.00
2023-04-23T00:50:01.262Z,0.00
2023-04-23T01:00:01.614Z,0.00
2023-04-23T01:10:01.119Z,0.00
2023-04-23T01:20:01.000Z,0.00
2023-04-23T01:30:01.297Z,0.00
2023-04-23T01:40:01.223Z,0.00
2023-04-23T01:50:01.706Z,0.00
2023-04-23T02:00:01.235Z,0.00
2023-04-23T02:10:03.403Z,0.00
2023-04-23T02:20:02.146Z,0.00
2023-04-23T02:30:02.101Z,0.00
2023-04-23T02:40:01.244Z,0.00
2023-04-23T02:50:01.977Z,0.00
2023-04-23T03:00:00.999Z,0.00
2023-04-23T03:10:01.336Z,0.00
2023-04-23T03:20:01.481Z,0.11
2023-04-23T03:30:01.247Z,1.92
2023-04-23T03:40:01.492Z,6.45
2023-04-23T03:50:01.313Z,10.87
2023-04-23T04:00:03.151Z,13.33
2023-04-23T04:10:01.072Z,40.00
2023-04-23T04:20:00.996Z,322.50
2023-04-23T04:30:01.016Z,438.33
2023-04-23T04:40:01.521Z,1130.42
2023-04-23T04:50:01.099Z,468.33
2023-04-23T05:00:01.065Z,391.67
2023-04-23T05:10:01.039Z,1518.33
2023-04-23T05:20:01.504Z,2032.50
2023-04-23T05:30:01.004Z,1731.25
2023-04-23T05:40:01.038Z,1614.17
2023-04-23T05:50:01.144Z,2480.83
2023-04-23T06:00:01.051Z,2630.42
2023-04-23T06:10:03.339Z,1486.67
2023-04-23T06:20:01.050Z,3904.58
2023-04-23T06:30:01.282Z,3111.67
2023-04-23T06:40:01.285Z,1886.67
2023-04-23T06:50:01.475Z,2406.25
2023-04-23T07:00:01.266Z,1815.42
2023-04-23T07:10:01.660Z,1351.25
2023-04-23T07:20:01.528Z,1454.58
2023-04-23T07:30:01.461Z,1937.92
2023-04-23T07:40:03.356Z,1590.00
2023-04-23T07:50:01.076Z,1646.67
2023-04-23T08:00:00.304Z,3375.42
2023-04-23T08:10:02.096Z,3047.92
2023-04-23T08:20:01.771Z,1935.00
2023-04-23T08:30:02.071Z,6786.67
2023-04-23T08:40:01.911Z,8860.00
2023-04-23T08:50:03.397Z,8761.25
2023-04-23T09:00:01.086Z,5788.33
2023-04-23T09:10:02.118Z,1513.33
2023-04-23T09:20:01.081Z,633.33
2023-04-23T09:30:01.547Z,441.67
2023-04-23T09:40:01.844Z,2301.25
2023-04-23T09:50:01.110Z,2676.25
2023-04-23T10:00:11.273Z,1436.67
2023-04-23T10:10:01.431Z,3094.17
2023-04-23T10:20:01.302Z,3423.33
2023-04-23T10:30:00.973Z,3701.67
2023-04-23T10:40:00.251Z,11636.25
2023-04-23T10:50:01.567Z,5760.00
2023-04-23T11:00:02.174Z,11530.83
2023-04-23T11:10:01.521Z,10855.83
2023-04-23T11:20:03.528Z,9067.92
2023-04-23T11:30:01.049Z,13772.92
2023-04-23T11:40:00.992Z,8876.25
2023-04-23T11:50:01.044Z,33727.50
2023-04-23T12:00:01.198Z,23535.83
2023-04-23T12:10:01.541Z,32235.00
2023-04-23T12:20:01.527Z,12480.42
2023-04-23T12:30:02.946Z,21524.17
2023-04-23T12:40:01.097Z,35970.00
2023-04-23T12:50:01.064Z,36718.33
2023-04-23T13:00:02.318Z,35791.67
2023-04-23T13:10:02.016Z,35045.83
2023-04-23T13:20:01.028Z,36600.83
2023-04-23T13:30:02.096Z,37465.83
2023-04-23T13:40:02.331Z,34276.67
2023-04-23T13:50:01.648Z,16206.25
2023-04-23T14:00:01.319Z,31969.17
2023-04-23T14:10:01.905Z,34177.50
2023-04-23T14:20:03.706Z,9535.42
2023-04-23T14:40:02.986Z,31807.50
2023-04-23T14:50:02.279Z,8624.58
2023-04-23T15:00:01.542Z,33860.83
2023-04-23T15:10:01.738Z,10885.83
2023-04-23T15:20:01.948Z,29106.67
2023-04-23T15:30:02.191Z,31547.50
2023-04-23T15:40:03.034Z,28383.33
2023-04-23T15:50:01.567Z,21630.42
2023-04-23T16:00:02.727Z,22470.42
2023-04-23T16:10:01.596Z,9786.25
2023-04-23T16:20:03.759Z,7972.50
2023-04-23T16:30:02.145Z,16607.08
2023-04-23T16:40:01.926Z,15991.25
2023-04-23T16:50:02.362Z,4611.25
2023-04-23T17:00:01.083Z,2060.42
2023-04-23T17:10:01.682Z,981.67
2023-04-23T17:20:01.300Z,3275.42
2023-04-23T17:30:01.333Z,2269.17
2023-04-23T17:40:01.053Z,1772.50
2023-04-23T17:50:02.483Z,1546.67
2023-04-23T18:00:01.301Z,902.08
2023-04-23T18:10:02.758Z,382.92
2023-04-23T18:20:01.258Z,68.33
2023-04-23T18:30:01.507Z,21.67
2023-04-23T18:40:01.295Z,10.75
2023-04-23T18:50:01.105Z,2.49
2023-04-23T19:00:01.917Z,0.57
2023-04-23T19:10:02.198Z,0.00
2023-04-23T19:20:00.253Z,0.00
2023-04-23T20:00:02.682Z,0.00
2023-04-23T20:10:01.090Z,0.00
2023-04-23T20:30:01.021Z,0.00
2023-04-23T20:40:01.283Z,0.00
2023-04-23T20:50:01.514Z,0.00
2023-04-23T21:00:01.044Z,0.00
2023-04-23T21:10:01.460Z,0.00
2023-04-23T21:20:00.961Z,0.00
2023-04-23T21:30:00.300Z,0.00
2023-04-23T21:40:01.542Z,0.00
2023-04-23T21:50:01.215Z,0.00
2023-04-23T22:00:01.892Z,0.00
2023-04-23T22:10:01.682Z,0.00
2023-04-23T22:20:01.326Z,0.00
2023-04-23T22:30:01.518Z,0.00
2023-04-23T22:40:01.155Z,0.00
2023-04-23T22:50:01.512Z,0.00
2023-04-23T23:00:01.464Z,0.00
2023-04-23T23:10:00.994Z,0.00
2023-04-23T23:20:01.537Z,0.00
2023-04-23T23:30:01.846Z,0.00
2023-04-23T23:40:03.200Z,0.00
2023-04-23T23:50:01.841Z,0.00
